Time;durP1;ratioP1;P1;durP2;ratioP2;P2;SDS_P1;SDS_P2;PMS_P1;PMS_P2;Temp;Humidity;BMP_temperature;BMP_pressure;BME280_temperature;BME280_humidity;BME280_pressure;Samples;Min_cycle;Max_cycle;Signal;HPM_P1;HPM_P2
2022/06/06 00:20:26;;;;;;;5.30;4.53;;;16.80;99.90;;;;;;5079005;27;1223835;-79
2022/06/06 00:22:52;;;;;;;7.20;5.93;;;16.80;99.90;;;;;;5070335;28;20419;-78
2022/06/06 00:25:17;;;;;;;10.97;7.00;;;16.90;99.90;;;;;;5083218;28;20212;-78
2022/06/06 00:27:43;;;;;;;9.33;6.13;;;16.90;99.90;;;;;;5092278;28;20208;-78
2022/06/06 00:30:09;;;;;;;18.33;7.80;;;17.00;99.90;;;;;;5100572;28;20223;-78
2022/06/06 00:35:20;;;;;;;10.10;6.03;;;17.10;99.90;;;;;;5098663;28;20423;-78
2022/06/06 00:37:47;;;;;;;13.23;7.13;;;17.10;99.90;;;;;;5086445;28;20472;-78
2022/06/06 00:40:17;;;;;;;15.23;7.83;;;17.10;99.90;;;;;;5072781;28;20876;-77
2022/06/06 00:42:43;;;;;;;11.37;7.07;;;17.20;99.90;;;;;;5078300;28;20449;-79
2022/06/06 00:45:20;;;;;;;23.13;11.03;;;17.20;99.90;;;;;;5101285;28;20969;-77
2022/06/06 00:48:09;;;;;;;16.10;8.00;;;17.20;99.90;;;;;;5102340;28;20414;-79
2022/06/06 00:50:48;;;;;;;16.67;8.30;;;17.20;99.90;;;;;;5065035;28;20444;-77
2022/06/06 00:53:17;;;;;;;21.90;9.87;;;17.20;99.90;;;;;;5090960;28;20411;-77
2022/06/06 00:55:48;;;;;;;16.00;8.13;;;17.20;99.90;;;;;;5071011;28;20415;-78
2022/06/06 00:58:18;;;;;;;17.20;9.17;;;17.20;99.90;;;;;;5094237;28;20998;-78
2022/06/06 01:00:44;;;;;;;13.23;7.80;;;17.20;99.90;;;;;;5095852;28;20434;-76
2022/06/06 01:03:13;;;;;;;23.13;11.17;;;17.10;99.90;;;;;;5101050;28;20422;-77
2022/06/06 01:05:40;;;;;;;21.87;10.40;;;17.10;99.90;;;;;;5094187;28;20424;-77
2022/06/06 01:08:07;;;;;;;19.47;11.27;;;17.00;99.90;;;;;;5100874;28;20429;-78
2022/06/06 01:10:33;;;;;;;15.50;9.20;;;17.00;99.90;;;;;;5074751;28;20435;-77
2022/06/06 01:12:59;;;;;;;16.33;8.40;;;17.00;99.90;;;;;;5100953;28;20426;-77
2022/06/06 01:15:28;;;;;;;15.00;8.90;;;17.00;99.90;;;;;;5086913;28;20425;-78
2022/06/06 01:18:30;;;;;;;40.07;36.97;;;17.00;99.90;;;;;;5064968;28;20292;-78
2022/06/06 01:21:30;;;;;;;35.30;15.57;;;16.90;99.90;;;;;;5086756;28;20454;-78
2022/06/06 01:24:42;;;;;;;17.57;9.47;;;16.80;99.90;;;;;;5096458;28;20419;-79
2022/06/06 01:27:37;;;;;;;18.87;10.13;;;16.90;99.90;;;;;;5077025;28;20418;-78
2022/06/06 01:30:16;;;;;;;14.77;9.63;;;16.80;99.90;;;;;;5085953;28;20497;-78
2022/06/06 01:32:46;;;;;;;23.33;21.10;;;16.80;99.90;;;;;;5073634;28;20450;-78
2022/06/06 01:35:22;;;;;;;20.07;10.83;;;17.20;99.90;;;;;;5082534;28;20432;-78
2022/06/06 01:37:48;;;;;;;15.53;9.87;;;16.70;99.90;;;;;;5059387;28;20511;-79
2022/06/06 01:40:15;;;;;;;14.67;9.70;;;16.60;99.90;;;;;;5060066;28;20991;-78
2022/06/06 01:43:05;;;;;;;15.13;9.33;;;16.70;99.90;;;;;;5067755;28;20182;-79
2022/06/06 01:45:40;;;;;;;19.43;10.60;;;16.60;99.90;;;;;;5087666;28;20420;-77
2022/06/06 01:48:10;;;;;;;14.50;9.17;;;16.60;99.90;;;;;;5089751;28;20419;-78
2022/06/06 01:50:41;;;;;;;20.73;11.70;;;16.50;99.90;;;;;;5072966;28;20455;-78
2022/06/06 01:53:12;;;;;;;18.33;10.87;;;16.60;99.90;;;;;;5079789;28;20457;-78
2022/06/06 01:55:40;;;;;;;22.27;19.00;;;17.50;99.90;;;;;;5068553;28;20438;-79
2022/06/06 01:58:10;;;;;;;37.63;34.77;;;16.50;99.90;;;;;;5082430;28;20474;-77
2022/06/06 02:00:38;;;;;;;17.60;10.67;;;16.50;99.90;;;;;;5079079;28;20444;-79
2022/06/06 02:03:04;;;;;;;17.00;10.70;;;16.50;99.90;;;;;;5070225;28;20435;-78
2022/06/06 02:05:30;;;;;;;84.10;79.13;;;16.50;99.90;;;;;;5069457;28;20514;-79
2022/06/06 02:07:57;;;;;;;91.40;86.30;;;16.50;99.90;;;;;;5080913;28;20452;-79
2022/06/06 02:10:23;;;;;;;76.53;72.57;;;16.50;99.90;;;;;;5083967;28;20197;-79
2022/06/06 02:12:49;;;;;;;84.73;80.90;;;16.50;99.90;;;;;;5067366;28;20424;-79
2022/06/06 02:15:18;;;;;;;92.67;87.27;;;16.40;99.90;;;;;;5059709;28;20430;-78
2022/06/06 02:17:43;;;;;;;20.97;13.07;;;16.40;99.90;;;;;;5060108;28;20178;-78
2022/06/06 02:20:11;;;;;;;27.10;14.80;;;16.30;99.90;;;;;;5065763;28;20481;-78
2022/06/06 02:22:38;;;;;;;49.60;46.77;;;16.40;99.90;;;;;;5068681;28;20187;-79
2022/06/06 02:25:06;;;;;;;297.93;277.17;;;16.40;99.90;;;;;;5071605;28;20432;-78
2022/06/06 02:27:33;;;;;;;196.10;181.13;;;16.40;99.90;;;;;;5087393;28;20431;-79
2022/06/06 02:29:59;;;;;;;299.50;278.50;;;16.40;99.90;;;;;;5087314;28;20442;-79
2022/06/06 02:32:25;;;;;;;239.63;228.87;;;16.40;99.90;;;;;;5062881;28;20424;-78
2022/06/06 02:34:50;;;;;;;243.97;226.97;;;16.30;99.90;;;;;;5077528;28;20427;-78
2022/06/06 02:37:16;;;;;;;277.83;264.20;;;16.20;99.90;;;;;;5086622;28;20542;-77
2022/06/06 02:39:43;;;;;;;39.90;36.37;;;16.20;99.90;;;;;;5072562;28;20202;-79
2022/06/06 02:42:09;;;;;;;22.83;15.17;;;16.20;99.90;;;;;;5079515;28;20174;-79
2022/06/06 02:44:34;;;;;;;26.20;13.50;;;16.20;99.90;;;;;;5089695;28;20758;-78
2022/06/06 02:47:00;;;;;;;22.20;14.67;;;16.20;99.90;;;;;;5081123;28;20669;-76
2022/06/06 02:49:26;;;;;;;16.10;12.10;;;16.20;99.90;;;;;;5074417;28;20231;-77
2022/06/06 02:51:51;;;;;;;15.70;12.00;;;16.20;99.90;;;;;;5085109;28;20658;-77
2022/06/06 02:54:17;;;;;;;25.60;14.30;;;16.10;99.90;;;;;;5072854;28;20613;-78
2022/06/06 02:56:42;;;;;;;16.03;11.53;;;16.00;99.90;;;;;;5080082;28;20192;-79
2022/06/06 02:59:09;;;;;;;20.80;12.63;;;16.10;99.90;;;;;;5078554;28;20237;-77
2022/06/06 03:01:34;;;;;;;21.83;19.53;;;16.10;99.90;;;;;;5071126;28;20207;-79
2022/06/06 03:04:00;;;;;;;18.90;13.90;;;16.10;99.90;;;;;;5085553;28;20424;-77
2022/06/06 03:06:46;;;;;;;19.67;13.20;;;16.10;99.90;;;;;;5092712;28;20184;-79
2022/06/06 03:09:55;;;;;;;21.97;12.83;;;16.10;99.90;;;;;;5080191;28;20189;-79
2022/06/06 03:12:55;;;;;;;17.37;11.93;;;16.10;99.90;;;;;;5047176;28;20442;-79
2022/06/06 03:15:23;;;;;;;19.80;12.27;;;16.00;99.90;;;;;;5081622;28;20419;-78
2022/06/06 03:21:13;;;;;;;32.60;16.90;;;16.00;99.90;;;;;;5071860;28;20424;-79
2022/06/06 03:23:47;;;;;;;25.50;13.83;;;15.90;99.90;;;;;;5091823;28;20405;-79
2022/06/06 03:26:18;;;;;;;23.93;14.40;;;15.90;99.90;;;;;;5086905;28;20458;-79
2022/06/06 03:29:07;;;;;;;19.93;12.73;;;15.90;99.90;;;;;;5080999;28;20506;-78
2022/06/06 03:31:58;;;;;;;30.50;22.00;;;15.90;99.90;;;;;;5077836;28;20434;-79
2022/06/06 03:34:51;;;;;;;24.93;15.07;;;15.90;99.90;;;;;;5091966;28;20964;-80
2022/06/06 03:37:27;;;;;;;21.13;13.33;;;16.00;99.90;;;;;;5099020;28;20419;-79
2022/06/06 03:40:14;;;;;;;21.63;13.47;;;15.90;99.90;;;;;;5081410;28;20560;-78
2022/06/06 03:42:52;;;;;;;20.40;13.30;;;16.00;99.90;;;;;;5081061;28;20419;-78
2022/06/06 03:45:33;;;;;;;20.30;12.67;;;16.00;99.90;;;;;;5087689;28;20451;-79
2022/06/06 03:48:44;;;;;;;24.07;15.13;;;16.00;99.90;;;;;;5056027;28;20450;-79
2022/06/06 03:51:36;;;;;;;18.63;12.60;;;16.00;99.90;;;;;;5001649;28;20420;-79
2022/06/06 03:54:07;;;;;;;23.10;13.53;;;16.00;99.90;;;;;;5002960;28;20450;-78
2022/06/06 03:56:44;;;;;;;20.23;12.83;;;16.00;99.90;;;;;;5006576;28;20426;-78
2022/06/06 03:59:10;;;;;;;18.90;12.20;;;16.10;99.90;;;;;;5001539;28;20477;-76
2022/06/06 04:01:40;;;;;;;28.47;15.73;;;;;;;;;;5010536;28;20427;-78
2022/06/06 04:04:06;;;;;;;20.50;13.03;;;;;;;;;;5018833;28;20206;-77
2022/06/06 04:06:33;;;;;;;17.67;12.23;;;16.10;99.90;;;;;;5006590;28;20486;-80
2022/06/06 04:08:59;;;;;;;17.97;12.67;;;16.20;99.90;;;;;;5024314;28;20537;-79
2022/06/06 04:11:30;;;;;;;24.60;14.87;;;16.10;99.90;;;;;;5024458;28;20449;-79
2022/06/06 04:14:07;;;;;;;18.40;12.33;;;16.10;99.90;;;;;;5008910;28;20260;-79
2022/06/06 04:16:52;;;;;;;21.20;14.20;;;16.20;99.90;;;;;;5024919;28;20426;-78
2022/06/06 04:19:42;;;;;;;23.77;13.67;;;16.40;99.90;;;;;;5008053;28;20485;-79
2022/06/06 04:22:08;;;;;;;21.83;14.20;;;;;;;;;;5019131;28;20493;-79
2022/06/06 04:24:45;;;;;;;20.63;13.07;;;16.50;99.90;;;;;;5026826;28;20422;-79
2022/06/06 04:27:32;;;;;;;26.97;15.80;;;16.60;99.90;;;;;;5076494;28;20440;-78
2022/06/06 04:30:27;;;;;;;19.70;12.60;;;16.70;99.90;;;;;;5074898;28;20520;-78
2022/06/06 04:33:22;;;;;;;25.70;14.67;;;16.70;99.90;;;;;;5071114;28;20420;-79
2022/06/06 04:36:10;;;;;;;18.57;12.30;;;16.80;99.90;;;;;;5074742;28;20483;-79
2022/06/06 04:38:56;;;;;;;21.43;12.27;;;16.80;99.90;;;;;;5077424;28;20607;-78
2022/06/06 04:41:25;;;;;;;95.67;90.53;;;;;;;;;;5079550;28;20765;-79
2022/06/06 04:44:12;;;;;;;24.87;14.20;;;16.80;99.90;;;;;;5087191;28;20411;-79
2022/06/06 04:47:01;;;;;;;27.30;21.83;;;16.90;99.90;;;;;;5090526;28;20454;-80
2022/06/06 04:49:28;;;;;;;22.83;13.27;;;;;;;;;;5071235;28;21004;-78
2022/06/06 04:51:56;;;;;;;18.70;13.73;;;16.90;99.90;;;;;;5092407;28;20419;-79
2022/06/06 04:54:23;;;;;;;21.50;16.63;;;17.10;99.90;;;;;;5099831;28;20427;-77
2022/06/06 04:56:51;;;;;;;19.90;12.67;;;17.10;99.90;;;;;;5094514;28;20518;-79
2022/06/06 04:59:20;;;;;;;21.87;12.70;;;17.30;99.90;;;;;;5064842;28;20476;-79
2022/06/06 05:01:46;;;;;;;18.83;12.40;;;17.10;99.90;;;;;;5094187;28;20451;-78
2022/06/06 05:04:12;;;;;;;27.00;14.90;;;17.30;99.90;;;;;;5080722;28;20533;-79
2022/06/06 05:06:43;;;;;;;20.10;13.03;;;17.30;99.90;;;;;;5094388;28;20872;-78
2022/06/06 05:09:21;;;;;;;19.00;12.07;;;17.30;99.90;;;;;;5091629;28;20202;-79
2022/06/06 05:12:01;;;;;;;20.57;11.73;;;17.30;99.90;;;;;;5064855;28;20749;-78
2022/06/06 05:14:27;;;;;;;17.10;12.30;;;;;;;;;;5073973;28;20504;-79
2022/06/06 05:17:02;;;;;;;18.20;12.33;;;17.40;99.90;;;;;;5093923;28;20530;-79
2022/06/06 05:19:49;;;;;;;21.50;13.33;;;17.30;99.90;;;;;;5091634;28;20235;-79
2022/06/06 05:22:29;;;;;;;17.63;11.33;;;17.20;99.90;;;;;;5066883;28;20432;-79
2022/06/06 05:25:29;;;;;;;16.50;11.07;;;17.30;99.90;;;;;;5059375;28;20449;-77
2022/06/06 05:28:16;;;;;;;17.63;11.77;;;17.40;99.90;;;;;;5089350;28;20426;-77
2022/06/06 05:31:04;;;;;;;28.63;15.07;;;17.50;99.90;;;;;;5088871;28;20539;-78
2022/06/06 05:33:45;;;;;;;22.57;11.70;;;17.50;99.90;;;;;;5084059;28;20511;-77
2022/06/06 05:36:13;;;;;;;18.37;11.97;;;17.50;99.90;;;;;;5103455;28;20486;-78
2022/06/06 05:38:56;;;;;;;17.77;10.10;;;17.50;99.90;;;;;;5077420;28;20472;-79
2022/06/06 05:41:49;;;;;;;21.63;12.80;;;17.50;99.90;;;;;;5084745;28;20487;-80
2022/06/06 05:44:21;;;;;;;18.17;12.30;;;17.60;99.90;;;;;;5083039;28;20442;-79
2022/06/06 05:46:49;;;;;;;23.60;13.27;;;17.60;99.90;;;;;;5077782;28;20418;-77
2022/06/06 05:49:34;;;;;;;26.10;13.00;;;17.70;99.90;;;;;;5088119;28;20474;-76
2022/06/06 05:52:13;;;;;;;19.70;12.33;;;;;;;;;;5057517;28;20443;-80
2022/06/06 05:54:57;;;;;;;20.57;11.80;;;17.80;99.90;;;;;;5076184;28;20875;-79
2022/06/06 05:57:54;;;;;;;23.83;13.37;;;17.80;99.90;;;;;;5065919;28;20434;-80
2022/06/06 06:00:34;;;;;;;14.13;10.63;;;17.80;99.90;;;;;;5083079;28;20478;-78
2022/06/06 06:03:24;;;;;;;13.33;10.00;;;17.80;99.90;;;;;;5075352;28;20422;-79
2022/06/06 06:06:17;;;;;;;17.80;10.90;;;17.80;99.90;;;;;;5076059;28;20499;-78
2022/06/06 06:08:58;;;;;;;17.80;10.93;;;18.00;99.90;;;;;;5069739;28;20428;-78
2022/06/06 06:11:45;;;;;;;21.17;11.53;;;18.00;99.90;;;;;;5097952;28;20415;-78
2022/06/06 06:14:29;;;;;;;18.10;11.50;;;18.20;99.90;;;;;;5084548;28;20448;-77
2022/06/06 06:16:59;;;;;;;14.03;10.13;;;18.20;99.90;;;;;;5058572;28;20527;-77
2022/06/06 06:19:34;;;;;;;16.30;11.03;;;18.20;99.90;;;;;;5065433;28;20718;-77
2022/06/06 06:22:01;;;;;;;21.30;12.40;;;18.20;99.90;;;;;;5057282;28;20430;-77
2022/06/06 06:24:46;;;;;;;15.80;10.43;;;18.10;99.90;;;;;;5068329;28;20432;-77
2022/06/06 06:27:13;;;;;;;15.43;11.00;;;18.10;99.90;;;;;;5070046;28;20430;-77
2022/06/06 06:29:39;;;;;;;20.90;13.10;;;18.10;99.90;;;;;;5084967;28;20462;-78
2022/06/06 06:32:51;;;;;;;17.80;12.37;;;18.10;99.90;;;;;;5086127;28;20423;-77
2022/06/06 06:35:44;;;;;;;18.80;11.93;;;18.10;99.90;;;;;;5010363;28;20645;-78
2022/06/06 06:38:23;;;;;;;23.03;16.47;;;18.10;99.90;;;;;;4999738;28;20420;-79
2022/06/06 06:41:23;;;;;;;32.83;15.60;;;18.10;99.90;;;;;;5013024;28;20456;-79
2022/06/06 06:43:54;;;;;;;22.67;12.10;;;18.20;99.90;;;;;;5014820;28;20791;-77
2022/06/06 06:46:24;;;;;;;18.97;12.20;;;18.30;99.90;;;;;;5031775;28;20449;-78
2022/06/06 06:48:51;;;;;;;17.50;11.10;;;18.20;99.90;;;;;;5034388;28;20522;-79
2022/06/06 06:51:30;;;;;;;18.93;11.47;;;18.20;99.90;;;;;;5034939;28;20432;-79
2022/06/06 06:54:04;;;;;;;19.97;12.43;;;18.20;99.90;;;;;;5026257;28;20417;-78
2022/06/06 06:57:05;;;;;;;22.97;13.23;;;18.30;99.90;;;;;;5024632;28;20427;-78
2022/06/06 06:59:49;;;;;;;42.17;18.70;;;18.30;99.90;;;;;;5011118;28;20478;-78
2022/06/06 07:08:48;;;;;;;25.03;13.13;;;18.40;99.90;;;;;;5048619;28;20477;-78
2022/06/06 07:11:20;;;;;;;20.40;11.80;;;;;;;;;;5074760;28;20564;-78
2022/06/06 07:14:03;;;;;;;30.77;15.33;;;18.60;99.90;;;;;;5068094;28;20548;-78
2022/06/06 07:16:40;;;;;;;16.00;9.93;;;18.80;99.90;;;;;;5072605;28;20444;-79
2022/06/06 07:19:14;;;;;;;17.10;11.27;;;19.20;99.90;;;;;;5075589;28;20479;-77
2022/06/06 07:21:41;;;;;;;28.43;13.97;;;18.90;99.90;;;;;;5089377;28;20427;-78
2022/06/06 07:24:10;;;;;;;29.57;12.60;;;19.00;99.90;;;;;;5090116;28;20505;-78
2022/06/06 07:26:41;;;;;;;21.27;12.20;;;19.10;99.90;;;;;;5082445;28;20801;-77
2022/06/06 07:29:10;;;;;;;25.07;13.10;;;19.20;99.90;;;;;;5072693;28;20448;-78
2022/06/06 07:32:13;;;;;;;18.23;10.80;;;19.10;99.90;;;;;;5071877;28;20852;-78
2022/06/06 07:35:03;;;;;;;19.33;11.00;;;19.20;99.90;;;;;;5089424;28;20929;-77
2022/06/06 07:37:48;;;;;;;16.03;9.73;;;19.20;99.90;;;;;;5078833;28;20426;-79
2022/06/06 07:40:23;;;;;;;14.77;9.57;;;19.30;99.90;;;;;;5082317;28;20459;-78
2022/06/06 07:43:01;;;;;;;19.33;11.07;;;19.40;99.90;;;;;;5078192;28;20919;-79
2022/06/06 07:45:38;;;;;;;17.20;11.10;;;19.60;99.90;;;;;;5088769;28;20442;-78
2022/06/06 07:48:23;;;;;;;15.97;9.60;;;19.50;99.90;;;;;;5075368;28;20446;-78
2022/06/06 07:51:21;;;;;;;25.77;13.10;;;19.50;99.90;;;;;;5072599;28;20438;-78
2022/06/06 07:53:55;;;;;;;15.70;9.77;;;19.50;99.90;;;;;;5043750;28;20407;-79
2022/06/06 07:56:39;;;;;;;16.67;10.43;;;19.50;99.90;;;;;;5083249;28;20418;-79
2022/06/06 07:59:35;;;;;;;16.73;10.17;;;19.50;99.90;;;;;;5086789;28;20471;-79
2022/06/06 08:02:46;;;;;;;16.73;10.20;;;19.60;99.90;;;;;;5062170;28;20423;-78
2022/06/06 08:05:21;;;;;;;18.70;10.30;;;19.70;99.90;;;;;;5030648;28;20442;-79
2022/06/06 08:08:06;;;;;;;15.23;9.90;;;19.80;99.90;;;;;;5083383;28;20412;-78
2022/06/06 08:10:37;;;;;;;16.67;10.03;;;19.60;99.90;;;;;;5082512;28;20512;-77
2022/06/06 08:13:02;;;;;;;15.07;9.50;;;19.50;99.90;;;;;;5073878;28;20462;-78
2022/06/06 08:15:31;;;;;;;15.57;10.17;;;19.40;99.90;;;;;;5066374;28;20419;-77
2022/06/06 08:18:15;;;;;;;16.53;9.83;;;19.30;99.90;;;;;;5085994;28;20226;-76
2022/06/06 08:21:00;;;;;;;13.30;9.17;;;19.30;99.90;;;;;;5082844;28;20451;-77
2022/06/06 08:23:29;;;;;;;13.30;9.80;;;19.30;99.90;;;;;;5076706;28;20435;-77
2022/06/06 08:25:56;;;;;;;16.87;10.87;;;19.20;99.90;;;;;;5089920;28;20944;-78
2022/06/06 08:28:23;;;;;;;16.57;11.10;;;19.00;99.90;;;;;;5084056;28;20522;-78
2022/06/06 08:30:49;;;;;;;30.77;15.20;;;18.70;99.90;;;;;;5065563;28;20484;-78
2022/06/06 08:33:14;;;;;;;14.80;11.60;;;18.60;99.90;;;;;;5061952;28;20432;-78
2022/06/06 08:35:55;;;;;;;22.10;14.60;;;18.40;99.90;;;;;;5058237;28;20185;-78
2022/06/06 08:38:27;;;;;;;14.70;9.70;;;18.10;99.90;;;;;;5079152;28;20173;-77
2022/06/06 08:41:30;;;;;;;28.63;12.17;;;17.70;99.90;;;;;;5068478;28;20432;-78
2022/06/06 08:44:18;;;;;;;17.63;9.17;;;17.30;99.90;;;;;;5052098;28;20423;-78
2022/06/06 08:46:50;;;;;;;18.73;11.07;;;16.90;99.90;;;;;;5086563;28;20420;-78
2022/06/06 08:53:03;;;;;;;16.47;8.77;;;16.40;99.90;;;;;;5083645;28;20395;-78
2022/06/06 08:55:53;;;;;;;12.90;7.20;;;16.20;99.90;;;;;;5080520;28;20923;-78
2022/06/06 08:58:40;;;;;;;12.10;8.93;;;16.20;99.90;;;;;;5050118;28;20862;-78
2022/06/06 09:01:45;;;;;;;16.40;9.33;;;16.30;99.90;;;;;;5084723;28;20411;-77
2022/06/06 09:04:34;;;;;;;23.47;12.20;;;16.50;99.90;;;;;;5064540;28;20502;-79
2022/06/06 09:07:18;;;;;;;46.73;43.13;;;16.70;99.90;;;;;;5068456;28;20516;-76
2022/06/06 09:10:09;;;;;;;18.13;8.90;;;17.00;99.90;;;;;;5081439;28;20443;-78
2022/06/06 09:12:57;;;;;;;12.93;7.10;;;17.10;99.90;;;;;;5086580;28;20765;-78
2022/06/06 09:15:25;;;;;;;12.97;6.63;;;17.00;99.90;;;;;;5067031;28;20435;-77
2022/06/06 09:18:00;;;;;;;14.93;7.13;;;17.00;99.90;;;;;;5071179;28;20435;-78
2022/06/06 09:20:41;;;;;;;16.10;7.53;;;17.10;99.90;;;;;;5071402;28;20507;-77
2022/06/06 09:23:21;;;;;;;15.50;7.10;;;17.20;99.90;;;;;;5090609;28;20418;-78
2022/06/06 09:26:24;;;;;;;15.57;7.30;;;17.20;99.90;;;;;;5069061;28;20448;-78
2022/06/06 09:29:18;;;;;;;15.40;7.27;;;17.40;99.90;;;;;;5068269;28;20447;-78
2022/06/06 09:32:18;;;;;;;51.97;48.37;;;17.40;99.90;;;;;;5086303;28;20427;-78
2022/06/06 09:35:15;;;;;;;14.73;11.67;;;17.60;99.90;;;;;;5081910;28;20434;-75
2022/06/06 09:37:59;;;;;;;35.90;33.53;;;17.80;99.90;;;;;;5094428;28;20518;-78
2022/06/06 09:40:34;;;;;;;9.97;5.77;;;17.80;99.90;;;;;;5077884;28;20467;-78
2022/06/06 09:43:23;;;;;;;23.63;9.83;;;17.90;99.90;;;;;;5070045;28;20418;-77
2022/06/06 09:45:57;;;;;;;17.23;8.67;;;17.90;99.90;;;;;;5069956;28;20514;-77
2022/06/06 09:49:04;;;;;;;75.23;71.30;;;17.90;99.90;;;;;;5079360;28;20499;-77
2022/06/06 09:51:45;;;;;;;23.73;10.00;;;17.90;99.90;;;;;;5038839;28;20616;-78
2022/06/06 10:00:28;;;;;;;11.93;5.70;;;18.10;99.90;;;;;;5076988;28;20477;-77
2022/06/06 10:03:31;;;;;;;11.37;5.63;;;18.20;99.90;;;;;;5053801;28;20435;-76
2022/06/06 10:06:33;;;;;;;10.80;5.37;;;18.30;99.90;;;;;;4976690;28;20546;-78
2022/06/06 10:09:46;;;;;;;11.50;4.93;;;18.60;99.90;;;;;;4976676;28;20507;-78
2022/06/06 10:12:29;;;;;;;13.33;5.97;;;18.70;99.90;;;;;;4973727;28;20428;-78
2022/06/06 10:15:42;;;;;;;14.33;5.40;;;18.60;99.90;;;;;;4965437;28;20795;-79
2022/06/06 10:18:55;;;;;;;13.20;5.40;;;18.70;99.90;;;;;;4939439;28;20440;-77
2022/06/06 10:21:45;;;;;;;16.50;6.03;;;18.70;99.90;;;;;;4912670;29;20803;-77
2022/06/06 10:24:19;;;;;;;18.63;7.43;;;18.90;99.90;;;;;;4910178;29;20428;-76
2022/06/06 10:27:03;;;;;;;18.13;7.23;;;19.10;99.90;;;;;;4907535;29;20420;-76
2022/06/06 10:30:11;;;;;;;8.60;4.37;;;19.30;99.90;;;;;;4906933;29;20447;-76
2022/06/06 10:33:13;;;;;;;14.63;6.13;;;19.20;99.90;;;;;;4909178;29;20470;-78
2022/06/06 10:36:24;;;;;;;16.70;7.60;;;19.30;99.90;;;;;;4908954;28;20830;-76
2022/06/06 10:39:12;;;;;;;12.53;5.30;;;19.40;99.90;;;;;;4958812;28;20466;-78
2022/06/06 10:42:07;;;;;;;15.37;6.20;;;19.40;99.90;;;;;;4997336;28;20989;-78
2022/06/06 10:44:51;;;;;;;19.13;7.50;;;19.50;99.90;;;;;;4999118;28;20955;-76
2022/06/06 10:47:40;;;;;;;18.90;7.70;;;19.60;99.90;;;;;;4988352;28;20936;-79
2022/06/06 10:50:27;;;;;;;10.20;4.97;;;19.80;99.90;;;;;;4984904;28;20510;-80
2022/06/06 10:53:11;;;;;;;16.50;6.60;;;19.80;99.90;;;;;;4981972;28;20434;-78
2022/06/06 10:56:18;;;;;;;14.53;6.10;;;19.80;99.90;;;;;;4991882;28;20424;-78
2022/06/06 10:59:00;;;;;;;13.27;5.27;;;19.70;99.90;;;;;;5078359;28;20561;-79
2022/06/06 11:01:26;;;;;;;16.47;6.40;;;;;;;;;;5075254;28;20427;-78
2022/06/06 11:04:26;;;;;;;9.27;4.00;;;19.70;99.90;;;;;;5065254;28;20479;-78
2022/06/06 11:07:18;;;;;;;12.17;5.00;;;19.70;99.90;;;;;;5077513;28;20420;-77
2022/06/06 11:10:04;;;;;;;16.37;6.47;;;19.80;99.90;;;;;;5035763;28;20589;-78
2022/06/06 11:12:41;;;;;;;11.27;4.53;;;20.10;99.90;;;;;;5086439;28;20440;-78
2022/06/06 11:15:07;;;;;;;14.83;5.73;;;20.30;99.90;;;;;;5079972;28;20540;-77
2022/06/06 11:17:39;;;;;;;11.00;4.70;;;20.40;99.90;;;;;;5084319;28;20523;-77
2022/06/06 11:20:29;;;;;;;13.77;5.60;;;20.80;99.90;;;;;;5088754;28;20260;-78
2022/06/06 11:23:19;;;;;;;11.97;5.10;;;21.00;99.90;;;;;;5086200;28;20408;-76
2022/06/06 11:26:20;;;;;;;14.30;5.60;;;21.10;99.90;;;;;;5084041;28;20415;-78
2022/06/06 11:28:48;;;;;;;9.17;4.70;;;21.30;99.90;;;;;;5037589;28;20419;-78
2022/06/06 11:31:40;;;;;;;16.60;6.00;;;21.50;99.90;;;;;;5079855;28;20546;-79
2022/06/06 11:34:37;;;;;;;9.67;4.00;;;21.30;99.90;;;;;;5063047;28;20424;-77
2022/06/06 11:37:25;;;;;;;10.03;4.40;;;21.20;99.90;;;;;;5064087;28;20462;-78
2022/06/06 11:40:28;;;;;;;9.77;4.10;;;21.10;99.90;;;;;;5084046;28;20960;-78
2022/06/06 11:43:15;;;;;;;7.50;3.90;;;21.10;99.90;;;;;;5083249;28;20414;-76
2022/06/06 11:46:09;;;;;;;10.80;4.60;;;21.40;99.90;;;;;;5077396;28;20442;-77
2022/06/06 11:49:13;;;;;;;7.60;3.30;;;21.00;99.90;;;;;;5082828;28;20420;-76
2022/06/06 11:52:20;;;;;;;9.47;4.47;;;21.40;99.90;;;;;;5082640;28;20924;-78
2022/06/06 11:55:04;;;;;;;10.83;4.40;;;21.50;99.90;;;;;;5017983;28;20785;-78
2022/06/06 11:57:57;;;;;;;15.67;5.57;;;21.70;99.90;;;;;;5011529;28;20416;-76
2022/06/06 12:00:32;;;;;;;12.57;5.13;;;21.80;99.90;;;;;;5005756;28;20475;-78
2022/06/06 12:03:06;;;;;;;14.23;5.13;;;21.80;99.90;;;;;;5011578;28;20485;-77
2022/06/06 12:05:53;;;;;;;13.60;5.00;;;21.70;99.90;;;;;;4988248;28;20466;-78
2022/06/06 12:08:48;;;;;;;10.43;4.27;;;21.90;99.90;;;;;;4989967;28;20431;-78
2022/06/06 12:11:47;;;;;;;9.37;4.00;;;22.50;99.90;;;;;;4957919;28;20440;-77
2022/06/06 12:14:30;;;;;;;12.53;5.20;;;22.80;99.90;;;;;;5003547;28;20435;-78
2022/06/06 12:17:02;;;;;;;9.03;3.83;;;23.20;99.90;;;;;;4996255;28;20458;-77
2022/06/06 12:19:51;;;;;;;15.23;5.50;;;23.20;99.90;;;;;;5007539;28;20517;-77
2022/06/06 12:22:57;;;;;;;14.83;4.87;;;23.70;99.90;;;;;;4999361;28;20462;-77
2022/06/06 12:25:35;;;;;;;18.40;7.60;;;24.10;99.90;;;;;;5004799;28;20415;-78
2022/06/06 12:28:26;;;;;;;15.77;6.30;;;24.50;99.90;;;;;;5007865;28;20841;-77
2022/06/06 12:31:22;;;;;;;24.30;8.50;;;25.00;99.90;;;;;;5040662;28;20436;-78
2022/06/06 12:34:09;;;;;;;9.63;4.47;;;25.30;99.90;;;;;;5045012;28;20419;-77
2022/06/06 12:36:50;;;;;;;9.63;4.33;;;25.70;99.90;;;;;;5063555;28;20417;-78
2022/06/06 12:39:39;;;;;;;12.57;4.83;;;25.60;99.90;;;;;;5069227;28;20516;-78
2022/06/06 12:42:48;;;;;;;14.73;5.70;;;25.60;99.90;;;;;;5060110;28;20427;-78
2022/06/06 12:45:37;;;;;;;16.23;6.37;;;25.60;99.90;;;;;;5075591;28;20444;-79
2022/06/06 12:48:03;;;;;;;8.13;4.13;;;;;;;;;;5076263;28;20429;-77
2022/06/06 12:50:31;;;;;;;12.17;5.57;;;25.50;99.90;;;;;;5088814;28;20542;-77
2022/06/06 12:53:15;;;;;;;9.50;4.57;;;25.40;99.90;;;;;;5062790;28;20188;-79
2022/06/06 12:56:17;;;;;;;13.63;6.00;;;26.30;99.90;;;;;;5077924;28;20423;-77
2022/06/06 12:58:45;;;;;;;12.47;4.87;;;26.00;99.90;;;;;;5088538;28;20419;-79
2022/06/06 13:01:38;;;;;;;9.57;4.13;;;26.00;99.90;;;;;;5067910;28;20495;-77
2022/06/06 13:04:18;;;;;;;10.60;4.80;;;26.10;99.90;;;;;;5072925;28;20432;-78
2022/06/06 13:07:23;;;;;;;8.70;4.00;;;25.80;99.90;;;;;;5086020;28;20469;-78
2022/06/06 13:09:52;;;;;;;9.80;4.40;;;;;;;;;;5066000;28;20447;-79
2022/06/06 13:12:41;;;;;;;7.03;3.63;;;25.30;99.90;;;;;;5064688;28;20424;-79
2022/06/06 13:15:33;;;;;;;12.87;5.63;;;25.00;99.90;;;;;;5080569;28;20657;-77
2022/06/06 13:18:21;;;;;;;9.90;4.63;;;25.00;99.90;;;;;;5007811;28;20424;-78
2022/06/06 13:21:08;;;;;;;11.50;4.90;;;25.20;99.90;;;;;;5083721;28;20475;-78
2022/06/06 13:23:40;;;;;;;8.97;4.30;;;25.50;99.90;;;;;;5073403;28;20419;-79
2022/06/06 13:26:24;;;;;;;11.40;4.60;;;25.80;99.90;;;;;;5055623;28;20420;-78
2022/06/06 13:28:52;;;;;;;8.63;3.80;;;26.10;99.90;;;;;;5077946;28;20550;-77
2022/06/06 13:31:18;;;;;;;14.03;5.50;;;;;;;;;;5057301;28;20428;-78
2022/06/06 13:34:05;;;;;;;10.67;4.57;;;26.10;99.90;;;;;;5076215;28;20517;-76
2022/06/06 13:36:39;;;;;;;10.70;4.73;;;26.10;99.90;;;;;;5085870;28;20192;-78
2022/06/06 13:39:08;;;;;;;12.97;5.57;;;26.60;99.90;;;;;;5082028;28;20495;-78
2022/06/06 13:41:39;;;;;;;12.70;5.17;;;27.20;99.90;;;;;;5076777;28;20426;-78
2022/06/06 13:47:10;;;;;;;8.27;3.77;;;27.30;99.40;;;;;;5155541;27;20705;-79
2022/06/06 13:50:00;;;;;;;6.67;3.17;;;27.60;99.90;;;;;;5153104;27;20499;-79
2022/06/06 13:53:00;;;;;;;8.53;3.73;;;27.60;99.40;;;;;;5131064;27;20454;-80
2022/06/06 13:55:30;;;;;;;10.50;4.00;;;27.70;98.00;;;;;;5151648;27;20508;-78
2022/06/06 13:58:24;;;;;;;6.23;3.13;;;27.00;97.80;;;;;;5155295;27;20474;-78
2022/06/06 14:01:08;;;;;;;17.33;5.40;;;25.90;98.30;;;;;;5141260;27;20440;-78
2022/06/06 14:03:45;;;;;;;7.33;3.53;;;25.20;99.90;;;;;;5149030;27;20420;-79
2022/06/06 14:06:23;;;;;;;10.20;5.00;;;24.60;99.90;;;;;;5148022;27;20923;-78
2022/06/06 14:08:54;;;;;;;8.53;3.80;;;24.10;99.90;;;;;;5138199;27;20437;-78
2022/06/06 14:11:43;;;;;;;12.73;4.97;;;24.40;99.90;;;;;;5134232;27;20441;-78
2022/06/06 14:14:13;;;;;;;12.80;4.60;;;24.70;99.90;;;;;;5128067;28;20787;-79
2022/06/06 14:16:46;;;;;;;8.60;3.70;;;24.50;99.90;;;;;;5135351;27;20433;-77
2022/06/06 14:19:21;;;;;;;11.53;4.60;;;24.10;99.90;;;;;;5133819;28;20498;-78
2022/06/06 14:21:56;;;;;;;16.30;5.77;;;24.00;99.90;;;;;;5128403;27;21015;-78
2022/06/06 14:24:24;;;;;;;16.10;6.90;;;24.70;99.90;;;;;;5137804;27;20417;-78
2022/06/06 14:26:59;;;;;;;10.10;3.50;;;25.00;99.90;;;;;;5147532;27;20471;-79